Williams, Pennsylvania
Current Conditions -  °F | °C
As of 5:58 PM on Sunday 21 Dec 2014 (Local Time) from KMUI Reporting Station
Clear Clear  
Wind Chill: 31°   Ceiling: Unl
Heat Index: 31°   Visibility: 10mi
Dew Point: 21°   Wind: 0mph
Humidity: 67%   Direction: NA
Pressure: 30.32"   Gusts: NA
Location:  40.5905°N, 76.6297°W
Report Text: KMUI 212258Z AUTO 00000KT 10SM CLR M01/M06 A3032 RMK AO2 SLP276 T10081062
Loading
Personal Weather Stations






























Interactive Weather Map New forecast layout! Learn more

10-Day Weather Forecast

Advertisements
Track Severe Weather on mobile